Time;durP1;ratioP1;P1;durP2;ratioP2;P2;SDS_P1;SDS_P2;PMS_P1;PMS_P2;Temp;Humidity;BMP_temperature;BMP_pressure;BME280_temperature;BME280_humidity;BME280_pressure;Samples;Min_cycle;Max_cycle;Signal;HPM_P1;HPM_P2
2023/11/11 00:00:24;;;;;;;6.95;3.90;;;;;;;;;;10298372;28;20068;-58
2023/11/11 00:05:24;;;;;;;4.60;4.10;;;;;;;;;;10299309;28;20083;-58
2023/11/11 00:10:23;;;;;;;5.68;3.70;;;;;;;;;;10298357;28;20494;-58
2023/11/11 00:15:22;;;;;;;4.82;4.05;;;;;;;;;;10298409;28;20516;-58
2023/11/11 00:20:21;;;;;;;6.45;4.28;;;;;;;;;;10298732;28;20529;-58
2023/11/11 00:25:21;;;;;;;4.97;4.47;;;;;;;;;;10297596;28;20095;-59
2023/11/11 00:30:21;;;;;;;3.92;3.45;;;;;;;;;;10297309;28;20075;-59
2023/11/11 00:35:20;;;;;;;6.38;4.25;;;;;;;;;;10312628;28;20076;-58
2023/11/11 00:40:18;;;;;;;6.50;4.57;;;;;;;;;;10296351;28;20505;-59
2023/11/11 00:45:17;;;;;;;4.07;3.67;;;;;;;;;;10296857;28;20072;-58
2023/11/11 00:50:17;;;;;;;4.35;3.70;;;;;;;;;;10295758;28;20083;-59
2023/11/11 00:55:15;;;;;;;4.35;3.95;;;;;;;;;;10295919;28;20079;-61
2023/11/11 01:00:19;;;;;;;8.68;4.18;;;;;;;;;;10295777;28;20072;-59
2023/11/11 01:05:19;;;;;;;5.67;4.37;;;;;;;;;;10295269;28;20506;-58
2023/11/11 01:10:18;;;;;;;4.47;4.07;;;;;;;;;;10295399;28;20075;-58
2023/11/11 01:15:16;;;;;;;7.78;6.97;;;;;;;;;;10302115;28;20479;-59
2023/11/11 01:20:14;;;;;;;12.52;11.43;;;;;;;;;;10295123;28;20167;-59
2023/11/11 01:25:14;;;;;;;9.52;7.15;;;;;;;;;;10294899;28;20072;-59
2023/11/11 01:30:13;;;;;;;4.95;3.88;;;;;;;;;;10293644;28;20071;-58
2023/11/11 01:35:12;;;;;;;6.50;4.45;;;;;;;;;;10293565;28;20095;-59
2023/11/11 01:40:10;;;;;;;6.22;4.07;;;;;;;;;;10278652;28;20087;-58
2023/11/11 01:45:10;;;;;;;5.72;4.22;;;;;;;;;;10280646;28;20075;-58
2023/11/11 01:50:09;;;;;;;7.78;4.05;;;;;;;;;;10278688;28;20879;-59
2023/11/11 01:55:08;;;;;;;4.25;3.75;;;;;;;;;;10294636;28;20079;-58
2023/11/11 02:00:12;;;;;;;4.95;3.78;;;;;;;;;;10293583;28;20083;-57
2023/11/11 02:05:12;;;;;;;9.65;8.60;;;;;;;;;;10277706;28;20079;-58
2023/11/11 02:10:11;;;;;;;29.05;26.23;;;;;;;;;;10292015;28;20073;-59
2023/11/11 02:15:10;;;;;;;49.53;33.50;;;;;;;;;;10300640;28;20076;-59
2023/11/11 02:20:11;;;;;;;26.13;22.45;;;;;;;;;;10293567;28;20079;-59
2023/11/11 02:25:11;;;;;;;11.20;10.10;;;;;;;;;;10293182;28;20502;-59
2023/11/11 02:30:11;;;;;;;7.93;7.13;;;;;;;;;;10299788;28;20045;-58
2023/11/11 02:35:10;;;;;;;4.97;4.47;;;;;;;;;;10293779;28;20080;-58
2023/11/11 02:40:12;;;;;;;5.70;4.88;;;;;;;;;;10300450;28;20076;-59
2023/11/11 02:45:12;;;;;;;5.10;4.00;;;;;;;;;;10291662;28;20048;-59
2023/11/11 02:50:10;;;;;;;6.13;4.28;;;;;;;;;;10292733;28;20060;-59
2023/11/11 02:55:09;;;;;;;6.75;4.78;;;;;;;;;;10292436;28;20076;-59
2023/11/11 03:00:10;;;;;;;10.85;5.00;;;;;;;;;;10292000;28;20617;-58
2023/11/11 03:05:11;;;;;;;10.30;5.15;;;;;;;;;;10293108;28;20080;-59
2023/11/11 03:10:10;;;;;;;6.90;5.15;;;;;;;;;;10292061;28;20072;-59
2023/11/11 03:15:09;;;;;;;6.25;5.57;;;;;;;;;;10292514;28;20170;-57
2023/11/11 03:20:08;;;;;;;8.60;5.22;;;;;;;;;;10292139;28;20084;-58
2023/11/11 03:25:10;;;;;;;8.35;6.22;;;;;;;;;;10292757;28;20057;-58
2023/11/11 03:30:09;;;;;;;6.22;4.50;;;;;;;;;;10302554;28;20421;-58
2023/11/11 03:35:08;;;;;;;4.43;4.03;;;;;;;;;;10298136;28;20079;-58
2023/11/11 03:40:10;;;;;;;5.47;4.35;;;;;;;;;;10298301;28;20056;-58
2023/11/11 03:45:10;;;;;;;4.43;4.03;;;;;;;;;;10299522;28;20076;-58
2023/11/11 03:50:10;;;;;;;6.05;4.20;;;;;;;;;;10299407;28;20095;-57
2023/11/11 03:55:10;;;;;;;4.78;4.28;;;;;;;;;;10299329;28;20077;-58
2023/11/11 04:00:10;;;;;;;4.80;4.38;;;;;;;;;;10306032;28;20085;-57
2023/11/11 04:05:11;;;;;;;6.05;3.65;;;;;;;;;;10307718;28;20084;-58
2023/11/11 04:10:11;;;;;;;4.35;3.95;;;;;;;;;;10298538;28;20075;-59
2023/11/11 04:15:10;;;;;;;4.65;4.25;;;;;;;;;;10296873;28;20085;-58
2023/11/11 04:20:10;;;;;;;4.43;4.03;;;;;;;;;;10298268;28;20072;-57
2023/11/11 04:25:12;;;;;;;6.90;3.65;;;;;;;;;;10280149;28;20107;-59
2023/11/11 04:30:10;;;;;;;4.28;3.55;;;;;;;;;;10298835;28;20083;-59
2023/11/11 04:35:09;;;;;;;4.90;4.43;;;;;;;;;;10297662;28;20072;-59
2023/11/11 04:40:08;;;;;;;4.55;3.85;;;;;;;;;;10296692;28;20072;-57
2023/11/11 04:45:08;;;;;;;4.45;3.78;;;;;;;;;;10280799;28;20083;-58
2023/11/11 04:50:06;;;;;;;3.72;3.42;;;;;;;;;;10296397;28;20155;-59
2023/11/11 04:55:05;;;;;;;4.50;3.70;;;;;;;;;;10296567;28;20084;-59
2023/11/11 05:00:09;;;;;;;4.18;3.78;;;;;;;;;;10295663;28;20072;-59
2023/11/11 05:05:10;;;;;;;4.45;2.90;;;;;;;;;;10279927;28;20079;-59
2023/11/11 05:10:09;;;;;;;3.38;3.08;;;;;;;;;;10296059;28;20517;-58
2023/11/11 05:15:14;;;;;;;7.07;3.80;;;;;;;;;;10295377;28;20502;-59
2023/11/11 05:20:15;;;;;;;4.07;3.22;;;;;;;;;;10295908;28;20552;-58
2023/11/11 05:25:13;;;;;;;3.80;3.50;;;;;;;;;;10295369;28;20068;-59
2023/11/11 05:30:12;;;;;;;4.57;3.88;;;;;;;;;;10279473;28;20180;-59
2023/11/11 05:35:11;;;;;;;4.57;3.10;;;;;;;;;;10278172;28;20509;-59
2023/11/11 05:40:16;;;;;;;3.03;2.67;;;;;;;;;;10294353;28;20107;-59
2023/11/11 05:45:15;;;;;;;3.70;3.28;;;;;;;;;;10294834;28;20076;-59
2023/11/11 05:50:14;;;;;;;4.25;3.38;;;;;;;;;;10294617;28;20065;-58
2023/11/11 05:55:13;;;;;;;4.32;3.15;;;;;;;;;;10278469;28;20120;-58
2023/11/11 06:00:13;;;;;;;5.35;3.00;;;;;;;;;;10278178;28;20064;-56
2023/11/11 06:05:12;;;;;;;4.07;3.72;;;;;;;;;;10277600;28;20075;-59
2023/11/11 06:10:11;;;;;;;5.38;3.72;;;;;;;;;;10294137;28;20075;-58
2023/11/11 06:15:11;;;;;;;3.55;3.05;;;;;;;;;;10293754;28;20107;-59
2023/11/11 06:20:11;;;;;;;4.35;3.70;;;;;;;;;;10294056;28;20091;-58
2023/11/11 06:25:09;;;;;;;4.78;3.28;;;;;;;;;;10294208;28;20076;-58
2023/11/11 06:30:09;;;;;;;3.88;2.90;;;;;;;;;;10294415;28;20498;-59
2023/11/11 06:35:12;;;;;;;3.83;3.38;;;;;;;;;;10293479;28;20099;-57
2023/11/11 06:40:10;;;;;;;4.22;3.35;;;;;;;;;;10293482;28;20072;-58
2023/11/11 06:45:14;;;;;;;5.78;4.38;;;;;;;;;;10293830;28;20079;-58
2023/11/11 06:50:16;;;;;;;3.78;2.78;;;;;;;;;;10292696;28;20718;-57
2023/11/11 06:55:15;;;;;;;4.22;3.75;;;;;;;;;;10292878;28;20501;-58
2023/11/11 07:00:18;;;;;;;4.03;3.65;;;;;;;;;;10292226;28;20073;-58
2023/11/11 07:05:18;;;;;;;3.67;3.28;;;;;;;;;;10280704;28;20067;-60
2023/11/11 07:10:16;;;;;;;3.80;3.40;;;;;;;;;;10299926;28;20068;-58
2023/11/11 07:15:15;;;;;;;3.50;3.10;;;;;;;;;;10300322;28;20080;-59
2023/11/11 07:20:16;;;;;;;2.80;2.60;;;;;;;;;;10299381;28;20072;-59
2023/11/11 07:25:17;;;;;;;3.70;3.20;;;;;;;;;;10299450;28;20518;-58
2023/11/11 07:30:15;;;;;;;3.75;3.00;;;;;;;;;;10299309;28;20049;-59
2023/11/11 07:35:15;;;;;;;3.60;3.17;;;;;;;;;;10299728;28;20353;-58
2023/11/11 07:40:14;;;;;;;19.05;15.05;;;;;;;;;;10298755;28;20080;-57
2023/11/11 07:45:19;;;;;;;7.75;5.05;;;;;;;;;;10299353;28;20079;-57
2023/11/11 07:50:19;;;;;;;8.25;7.22;;;;;;;;;;10299190;28;20363;-55
2023/11/11 07:55:18;;;;;;;4.32;3.92;;;;;;;;;;10298021;28;20069;-58
2023/11/11 08:00:18;;;;;;;4.20;3.80;;;;;;;;;;10298354;28;20510;-56
2023/11/11 08:05:17;;;;;;;18.48;10.40;;;;;;;;;;10298204;28;20084;-59
2023/11/11 08:10:15;;;;;;;28.98;25.88;;;;;;;;;;10305455;28;20059;-60
2023/11/11 08:15:14;;;;;;;10.43;6.60;;;;;;;;;;10298160;28;20077;-58
2023/11/11 08:20:16;;;;;;;4.35;3.80;;;;;;;;;;10298543;28;20076;-59
2023/11/11 08:25:14;;;;;;;4.03;2.60;;;;;;;;;;10298474;28;20088;-58
2023/11/11 08:30:13;;;;;;;7.63;5.60;;;;;;;;;;10297722;28;20073;-59
2023/11/11 08:35:15;;;;;;;3.13;2.60;;;;;;;;;;10297645;28;20107;-58
2023/11/11 08:40:17;;;;;;;12.07;10.32;;;;;;;;;;10283503;28;20355;-59
2023/11/11 08:45:15;;;;;;;3.80;3.05;;;;;;;;;;10296727;28;20087;-60
2023/11/11 08:50:13;;;;;;;3.58;2.67;;;;;;;;;;10296587;28;20480;-59
2023/11/11 08:55:12;;;;;;;18.27;12.85;;;;;;;;;;10296444;28;20087;-57
2023/11/11 09:00:12;;;;;;;20.48;16.38;;;;;;;;;;10280230;28;20076;-57
2023/11/11 09:05:11;;;;;;;13.43;11.32;;;;;;;;;;10279871;28;20108;-58
2023/11/11 09:10:09;;;;;;;10.40;9.35;;;;;;;;;;10295457;28;20076;-57
2023/11/11 09:15:08;;;;;;;10.82;8.68;;;;;;;;;;10294926;28;20079;-57
2023/11/11 09:20:12;;;;;;;15.63;13.63;;;;;;;;;;10295279;28;20087;-58
2023/11/11 09:25:10;;;;;;;16.02;14.02;;;;;;;;;;10294731;28;20088;-58
2023/11/11 09:30:09;;;;;;;16.65;12.18;;;;;;;;;;10294655;28;20092;-58
2023/11/11 09:35:08;;;;;;;33.33;17.20;;;;;;;;;;10294132;28;20503;-58
2023/11/11 09:40:11;;;;;;;16.63;10.05;;;;;;;;;;10293978;28;20080;-58
2023/11/11 09:45:13;;;;;;;19.67;12.88;;;;;;;;;;10294416;28;20080;-58
2023/11/11 09:50:14;;;;;;;79.90;45.35;;;;;;;;;;10294120;28;20484;-58
2023/11/11 09:55:15;;;;;;;40.63;28.35;;;;;;;;;;10293859;28;20079;-59
2023/11/11 10:00:15;;;;;;;18.73;16.75;;;;;;;;;;10278221;28;20333;-57
2023/11/11 10:05:13;;;;;;;21.40;17.45;;;;;;;;;;10294035;28;20072;-57
2023/11/11 10:10:12;;;;;;;18.60;14.98;;;;;;;;;;10293317;28;20069;-56
2023/11/11 10:15:12;;;;;;;22.25;16.38;;;;;;;;;;10293138;28;20095;-57
2023/11/11 10:20:13;;;;;;;16.45;13.48;;;;;;;;;;10293104;28;20454;-55
2023/11/11 10:25:14;;;;;;;11.98;10.48;;;;;;;;;;10292827;28;20087;-57
2023/11/11 10:30:19;;;;;;;10.77;9.57;;;;;;;;;;10293505;28;20079;-58
2023/11/11 10:35:26;;;;;;;14.02;11.90;;;;;;;;;;10292826;28;20084;-58
2023/11/11 10:40:24;;;;;;;19.40;12.93;;;;;;;;;;10283193;28;20069;-56
2023/11/11 10:45:24;;;;;;;12.73;11.30;;;;;;;;;;10300963;28;20076;-57
2023/11/11 10:50:23;;;;;;;17.25;15.27;;;;;;;;;;10300334;28;20491;-56
2023/11/11 10:55:21;;;;;;;13.50;12.05;;;;;;;;;;10299668;28;20095;-56
2023/11/11 11:00:20;;;;;;;11.90;10.75;;;;;;;;;;10300593;28;20069;-58
2023/11/11 11:05:25;;;;;;;16.70;10.05;;;;;;;;;;10286605;28;20080;-56
2023/11/11 11:10:28;;;;;;;13.32;11.65;;;;;;;;;;10301110;28;20068;-55
2023/11/11 11:15:28;;;;;;;17.27;11.35;;;;;;;;;;10301020;28;20481;-57
2023/11/11 11:20:29;;;;;;;17.00;13.43;;;;;;;;;;10300577;28;20125;-56
2023/11/11 11:25:33;;;;;;;18.77;15.73;;;;;;;;;;10297642;28;20091;-54
2023/11/11 11:30:34;;;;;;;18.95;16.15;;;;;;;;;;10299804;28;20072;-57
2023/11/11 11:35:35;;;;;;;20.67;16.70;;;;;;;;;;10299271;28;20073;-59
2023/11/11 11:40:35;;;;;;;19.95;17.58;;;;;;;;;;10297109;28;20080;-59
2023/11/11 11:45:35;;;;;;;22.35;17.35;;;;;;;;;;10299159;28;20076;-59
2023/11/11 11:50:35;;;;;;;20.40;16.88;;;;;;;;;;10297880;28;20072;-57
2023/11/11 11:55:36;;;;;;;24.20;18.95;;;;;;;;;;10298656;28;20099;-58
2023/11/11 12:00:38;;;;;;;22.17;17.77;;;;;;;;;;10298268;28;20504;-60
2023/11/11 12:05:38;;;;;;;22.15;17.52;;;;;;;;;;10297856;28;20075;-59
2023/11/11 12:10:46;;;;;;;21.80;15.98;;;;;;;;;;10298813;28;20045;-60
2023/11/11 12:15:51;;;;;;;16.60;14.20;;;;;;;;;;10298642;28;20076;-59
2023/11/11 12:20:50;;;;;;;16.05;12.48;;;;;;;;;;10298531;28;20082;-58
2023/11/11 12:25:49;;;;;;;15.48;13.63;;;;;;;;;;10297879;28;20076;-56
2023/11/11 12:30:47;;;;;;;20.00;14.43;;;;;;;;;;10298277;28;20164;-58
2023/11/11 12:35:47;;;;;;;20.02;15.95;;;;;;;;;;10298146;28;20085;-58
2023/11/11 12:40:47;;;;;;;20.98;17.73;;;;;;;;;;10297745;28;20072;-57
2023/11/11 12:45:46;;;;;;;20.88;17.52;;;;;;;;;;10296069;28;20045;-57
2023/11/11 12:50:45;;;;;;;15.10;10.93;;;;;;;;;;10297025;28;20439;-57
2023/11/11 12:55:43;;;;;;;14.43;10.10;;;;;;;;;;10280185;28;20085;-57
2023/11/11 13:00:50;;;;;;;10.43;9.40;;;;;;;;;;10283506;28;20092;-57
2023/11/11 13:05:49;;;;;;;8.43;6.55;;;;;;;;;;10296119;28;20072;-58
2023/11/11 13:10:47;;;;;;;7.78;7.07;;;;;;;;;;10296175;28;20073;-56
2023/11/11 13:15:49;;;;;;;4.57;4.18;;;;;;;;;;10296564;28;20081;-59
2023/11/11 13:20:50;;;;;;;8.98;7.38;;;;;;;;;;10296241;28;20471;-58
2023/11/11 13:25:50;;;;;;;11.70;9.43;;;;;;;;;;10295635;28;20072;-56
2023/11/11 13:30:49;;;;;;;36.40;27.10;;;;;;;;;;10295688;28;20069;-56
2023/11/11 13:35:51;;;;;;;55.70;37.00;;;;;;;;;;10295138;28;20068;-57
2023/11/11 13:40:51;;;;;;;13.00;10.38;;;;;;;;;;10280760;28;20064;-58
2023/11/11 13:45:49;;;;;;;6.75;6.03;;;;;;;;;;10294433;28;20079;-57
2023/11/11 13:50:49;;;;;;;9.02;7.10;;;;;;;;;;10294621;28;20177;-56
2023/11/11 13:55:47;;;;;;;7.70;6.97;;;;;;;;;;10278511;28;20134;-58
2023/11/11 14:00:45;;;;;;;11.10;7.28;;;;;;;;;;10294051;28;20061;-57
2023/11/11 14:05:44;;;;;;;7.40;6.70;;;;;;;;;;10293724;28;20346;-56
2023/11/11 14:10:45;;;;;;;12.20;7.93;;;;;;;;;;10293689;28;20091;-56
2023/11/11 14:15:45;;;;;;;11.52;9.43;;;;;;;;;;10293214;28;20073;-56
2023/11/11 14:20:44;;;;;;;8.02;6.88;;;;;;;;;;10293655;28;20092;-56
2023/11/11 14:25:44;;;;;;;9.18;6.60;;;;;;;;;;10300583;28;20598;-56
2023/11/11 14:30:44;;;;;;;14.88;11.70;;;;;;;;;;10292847;28;20076;-56
2023/11/11 14:35:42;;;;;;;19.48;15.68;;;;;;;;;;10292946;28;20072;-57
2023/11/11 14:40:41;;;;;;;15.90;11.23;;;;;;;;;;10293199;28;20079;-55
2023/11/11 14:45:41;;;;;;;19.45;14.55;;;;;;;;;;10292987;28;20068;-57
2023/11/11 14:50:40;;;;;;;13.52;11.65;;;;;;;;;;10292507;28;20072;-57
2023/11/11 14:55:39;;;;;;;15.23;11.52;;;;;;;;;;10293232;28;20076;-57
2023/11/11 15:00:37;;;;;;;23.65;18.23;;;;;;;;;;10292628;28;20091;-58
2023/11/11 15:05:35;;;;;;;14.55;11.85;;;;;;;;;;10276346;28;20072;-56
2023/11/11 15:10:37;;;;;;;12.82;11.48;;;;;;;;;;10293144;28;20064;-58
2023/11/11 15:15:37;;;;;;;15.93;14.27;;;;;;;;;;10277046;28;20073;-59
2023/11/11 15:20:35;;;;;;;13.18;11.32;;;;;;;;;;10292189;28;20091;-54
2023/11/11 15:25:34;;;;;;;13.68;9.48;;;;;;;;;;10295152;28;20506;-57
2023/11/11 15:30:33;;;;;;;20.30;13.73;;;;;;;;;;10299545;28;20076;-56
2023/11/11 15:35:32;;;;;;;14.65;12.02;;;;;;;;;;10299207;28;20103;-56
2023/11/11 15:40:31;;;;;;;12.55;10.57;;;;;;;;;;10299279;28;20517;-55
2023/11/11 15:45:32;;;;;;;12.93;10.23;;;;;;;;;;10298916;28;20040;-56
2023/11/11 15:50:30;;;;;;;7.30;5.88;;;;;;;;;;10298820;28;20068;-58
2023/11/11 15:55:29;;;;;;;7.80;7.10;;;;;;;;;;10298365;28;20075;-55
2023/11/11 16:00:27;;;;;;;8.65;7.55;;;;;;;;;;10298764;28;20096;-58
2023/11/11 16:05:28;;;;;;;8.43;7.18;;;;;;;;;;10298819;28;20091;-57
2023/11/11 16:10:26;;;;;;;6.90;6.13;;;;;;;;;;10282154;28;20076;-55
2023/11/11 16:15:24;;;;;;;7.10;6.43;;;;;;;;;;10296600;28;20090;-54
2023/11/11 16:20:22;;;;;;;8.70;6.43;;;;;;;;;;10278487;28;20088;-57
2023/11/11 16:25:22;;;;;;;8.02;6.10;;;;;;;;;;10294597;28;20458;-54
2023/11/11 16:30:20;;;;;;;6.22;5.63;;;;;;;;;;10296170;28;20509;-56
2023/11/11 16:35:18;;;;;;;7.40;6.70;;;;;;;;;;10290900;28;20080;-56
2023/11/11 16:40:17;;;;;;;9.43;8.52;;;;;;;;;;10279603;28;20469;-57
2023/11/11 16:45:17;;;;;;;8.85;7.63;;;;;;;;;;10291379;28;20076;-56
2023/11/11 16:50:16;;;;;;;10.02;7.15;;;;;;;;;;10293091;28;20418;-50
2023/11/11 16:55:14;;;;;;;7.25;6.05;;;;;;;;;;10289512;28;20088;-54
2023/11/11 17:00:17;;;;;;;6.88;5.70;;;;;;;;;;10290649;28;20068;-55
2023/11/11 17:05:17;;;;;;;5.07;4.22;;;;;;;;;;10304296;28;20060;-55
2023/11/11 17:10:15;;;;;;;4.07;3.67;;;;;;;;;;10286116;28;20093;-55
2023/11/11 17:15:13;;;;;;;4.72;4.15;;;;;;;;;;10288729;28;20518;-55
2023/11/11 17:20:14;;;;;;;3.95;3.47;;;;;;;;;;10295681;28;20088;-54
2023/11/11 17:25:14;;;;;;;4.25;3.35;;;;;;;;;;10292745;28;20073;-55
2023/11/11 17:30:12;;;;;;;3.28;2.95;;;;;;;;;;10280277;28;20083;-54
2023/11/11 17:35:10;;;;;;;4.00;3.10;;;;;;;;;;10294848;28;20087;-55
2023/11/11 17:40:10;;;;;;;7.32;3.22;;;;;;;;;;10294966;28;20080;-55
2023/11/11 17:45:10;;;;;;;4.70;3.22;;;;;;;;;;10284851;28;20086;-54
2023/11/11 17:50:09;;;;;;;4.95;3.60;;;;;;;;;;10285524;28;20086;-54
2023/11/11 17:55:08;;;;;;;4.80;3.92;;;;;;;;;;10285148;28;20080;-56
2023/11/11 18:00:12;;;;;;;7.40;5.25;;;;;;;;;;10291028;28;20094;-56
2023/11/11 18:05:12;;;;;;;5.63;4.27;;;;;;;;;;10288383;28;20087;-53
2023/11/11 18:10:10;;;;;;;4.55;3.05;;;;;;;;;;10291987;28;20330;-57
2023/11/11 18:15:10;;;;;;;3.42;3.13;;;;;;;;;;10292201;28;20083;-56
2023/11/11 18:20:09;;;;;;;8.25;5.57;;;;;;;;;;10291498;28;20102;-57
2023/11/11 18:25:10;;;;;;;5.05;4.38;;;;;;;;;;10291161;28;20068;-57
2023/11/11 18:30:08;;;;;;;5.90;5.38;;;;;;;;;;10292446;28;20073;-54
2023/11/11 18:35:09;;;;;;;5.80;4.68;;;;;;;;;;10291013;28;20478;-56
2023/11/11 18:40:10;;;;;;;8.00;6.03;;;;;;;;;;10291615;28;20084;-50
2023/11/11 18:45:08;;;;;;;7.07;5.93;;;;;;;;;;10290635;28;20080;-57
2023/11/11 18:50:07;;;;;;;5.20;4.70;;;;;;;;;;10291227;28;20073;-54
2023/11/11 18:55:21;;;;;;;6.43;4.85;;;;;;;;;;10291734;28;20080;-55
2023/11/11 19:00:19;;;;;;;7.00;5.97;;;;;;;;;;10293622;28;20076;-58
2023/11/11 19:05:18;;;;;;;7.95;4.57;;;;;;;;;;10299268;28;20091;-55
2023/11/11 19:10:16;;;;;;;4.88;4.35;;;;;;;;;;10298601;28;20076;-52
2023/11/11 19:15:16;;;;;;;5.10;4.60;;;;;;;;;;10298040;28;20087;-57
2023/11/11 19:20:19;;;;;;;7.20;4.50;;;;;;;;;;10294170;28;20079;-53
2023/11/11 19:25:18;;;;;;;4.40;4.00;;;;;;;;;;10297523;28;20072;-56
2023/11/11 19:30:18;;;;;;;5.32;3.92;;;;;;;;;;10297405;28;20083;-55
2023/11/11 19:35:16;;;;;;;4.38;3.58;;;;;;;;;;10293294;28;20088;-56
2023/11/11 19:40:14;;;;;;;3.55;3.25;;;;;;;;;;10297693;28;20073;-58
2023/11/11 19:45:14;;;;;;;4.05;3.67;;;;;;;;;;10297118;28;20079;-55
2023/11/11 19:50:14;;;;;;;8.05;4.72;;;;;;;;;;10297342;28;20072;-56
2023/11/11 19:55:12;;;;;;;6.93;4.30;;;;;;;;;;10297180;28;20064;-56
2023/11/11 20:00:12;;;;;;;3.60;3.30;;;;;;;;;;10296768;28;20077;-56
2023/11/11 20:05:10;;;;;;;3.42;3.13;;;;;;;;;;10296331;28;20072;-56
2023/11/11 20:10:10;;;;;;;7.03;4.05;;;;;;;;;;10290892;28;20065;-56
2023/11/11 20:15:11;;;;;;;4.45;2.75;;;;;;;;;;10293131;28;20471;-57
2023/11/11 20:20:12;;;;;;;2.90;2.60;;;;;;;;;;10295394;28;20092;-57
2023/11/11 20:25:12;;;;;;;2.60;2.40;;;;;;;;;;10296226;28;20106;-55
2023/11/11 20:30:11;;;;;;;3.47;2.85;;;;;;;;;;10295371;28;20080;-55
2023/11/11 20:35:13;;;;;;;3.65;3.33;;;;;;;;;;10295442;28;20084;-51
2023/11/11 20:40:14;;;;;;;3.53;3.22;;;;;;;;;;10294840;28;20549;-54
2023/11/11 20:45:14;;;;;;;2.80;2.50;;;;;;;;;;10294045;28;20091;-53
2023/11/11 20:50:13;;;;;;;10.57;2.50;;;;;;;;;;10294294;28;20565;-53
2023/11/11 20:55:16;;;;;;;4.80;2.63;;;;;;;;;;10296898;28;20095;-52
2023/11/11 21:00:15;;;;;;;2.58;2.38;;;;;;;;;;10298539;28;20091;-50
2023/11/11 21:05:16;;;;;;;3.05;2.75;;;;;;;;;;10288177;28;20478;-54
2023/11/11 21:10:16;;;;;;;3.15;2.80;;;;;;;;;;10286857;28;20075;-53
2023/11/11 21:15:16;;;;;;;4.63;4.15;;;;;;;;;;10293135;28;20136;-51
2023/11/11 21:20:14;;;;;;;10.60;7.65;;;;;;;;;;10290653;28;20095;-56
2023/11/11 21:25:14;;;;;;;17.73;11.43;;;;;;;;;;10291323;28;20447;-54
2023/11/11 21:30:15;;;;;;;59.85;29.70;;;;;;;;;;10291267;28;20072;-55
2023/11/11 21:35:13;;;;;;;58.30;25.17;;;;;;;;;;10291329;28;20068;-55
2023/11/11 21:40:12;;;;;;;28.50;14.73;;;;;;;;;;10289878;28;20072;-52
2023/11/11 21:45:10;;;;;;;9.43;6.00;;;;;;;;;;10290030;28;20068;-55
2023/11/11 21:50:10;;;;;;;16.20;9.68;;;;;;;;;;10288756;28;20060;-52
2023/11/11 21:55:09;;;;;;;18.00;11.95;;;;;;;;;;10290634;28;20072;-57
2023/11/11 22:00:09;;;;;;;9.95;5.65;;;;;;;;;;10289682;28;20083;-52
2023/11/11 22:05:12;;;;;;;7.47;5.13;;;;;;;;;;10290312;28;20077;-54
2023/11/11 22:10:11;;;;;;;4.13;3.72;;;;;;;;;;10292800;28;20072;-55
2023/11/11 22:15:09;;;;;;;4.22;2.83;;;;;;;;;;10289081;28;20067;-57
2023/11/11 22:20:09;;;;;;;2.92;2.63;;;;;;;;;;10291456;28;20492;-54
2023/11/11 22:25:10;;;;;;;7.53;2.75;;;;;;;;;;10290118;28;20072;-53
2023/11/11 22:30:10;;;;;;;2.83;2.63;;;;;;;;;;10290327;28;20087;-55
2023/11/11 22:35:10;;;;;;;3.17;2.60;;;;;;;;;;10296067;28;20101;-56
2023/11/11 22:40:13;;;;;;;7.13;3.97;;;;;;;;;;10302339;28;20075;-49
2023/11/11 22:45:12;;;;;;;6.50;5.68;;;;;;;;;;10301834;28;20095;-52
2023/11/11 22:50:12;;;;;;;6.10;4.55;;;;;;;;;;10303146;28;20075;-53
2023/11/11 22:55:12;;;;;;;3.85;2.80;;;;;;;;;;10303219;28;20071;-53
2023/11/11 23:00:12;;;;;;;5.97;4.70;;;;;;;;;;10302049;28;20092;-56
2023/11/11 23:05:10;;;;;;;3.95;3.40;;;;;;;;;;10303839;28;20077;-55
2023/11/11 23:10:09;;;;;;;3.85;3.42;;;;;;;;;;10299806;28;20060;-53
2023/11/11 23:15:10;;;;;;;3.00;2.58;;;;;;;;;;10305303;28;20076;-52
2023/11/11 23:20:11;;;;;;;3.65;3.35;;;;;;;;;;10299617;28;20518;-58
2023/11/11 23:25:09;;;;;;;5.03;2.40;;;;;;;;;;10298273;28;20075;-55
2023/11/11 23:30:10;;;;;;;2.65;2.45;;;;;;;;;;10297787;28;20493;-56
2023/11/11 23:35:08;;;;;;;3.28;2.50;;;;;;;;;;10301028;28;20068;-54
2023/11/11 23:40:08;;;;;;;2.55;2.10;;;;;;;;;;10297036;28;20081;-54
2023/11/11 23:45:08;;;;;;;2.47;2.28;;;;;;;;;;10295296;28;20041;-54
2023/11/11 23:50:09;;;;;;;3.08;2.25;;;;;;;;;;10294963;28;20056;-56
2023/11/11 23:55:09;;;;;;;2.00;1.80;;;;;;;;;;10295337;28;20095;-53
